Hassler — WTEK — position and weather

sailwx.info

Track history (hours):
 
Tides and Currents Weather Stations Pressure Air Temp Water Temp Dewpoint Dewpoint Depression Visibility Wind Speed Wind Dir Waves Ship Positions

Oceanographic research ship Hassler (USA)

Last reported at 2017-Jan-02 14:53 UTC. Time now 2017-Jan-24 07:04 UTC.
Position N 43°00' W 070°42'.
Warning: this ship's position is 21 days out of date.

Length 37 m; draft 3.8 m.

Type: . MMSI: 369970091.

Wind from 300 at 4 knots

Barometer 1032.6 mb
Air temperature -0.8 ° C

Date/timePositionNaut miles runAvg speedWind from/ knotsBaromVisibWave heightAir tempDewpointWater temp
2017-Jan-02 14:53N 43°00' W 070°42'0 0.0 300 / 41032.6 -0.8
2017-Jan-02 13:53N 43°00' W 070°42'0 0.0 320 / 21031.9 -2.1
2017-Jan-02 12:53N 43°00' W 070°42'0 0.0 340 / 41032.5 -2.6
2017-Jan-02 11:53N 43°00' W 070°42'0 0.0 260 / 51031.5 -2.4
2017-Jan-02 10:53N 43°00' W 070°42'0 0.0 280 / 71030.8 -2.1
2017-Jan-02 09:53N 43°00' W 070°42'0 0.0 270 / 61030.8 -1.7
2017-Jan-02 07:53N 43°00' W 070°42'0 0.0 270 / 41029.9 -1.0
2017-Jan-02 06:53N 43°00' W 070°42'0 0.0 280 / 21028.9 -0.8
2017-Jan-02 05:54N 43°00' W 070°42'0 0.0 220 / 21028.6 -0.8
2017-Jan-02 04:54N 43°00' W 070°42'0 0.0 200 / 21028.0 0.3
2017-Jan-02 03:54N 43°00' W 070°42'0 0.0 250 / 31027.8 0.1
2017-Jan-02 02:54N 43°00' W 070°42'0 0.0 270 / 41027.5 1.4
2017-Jan-02 01:54N 43°00' W 070°42'0 0.0 280 / 61026.6 2.1
2017-Jan-02 00:54N 43°00' W 070°42'0 0.0 290 / 11025.8 1.9
2017-Jan-01 22:54N 43°00' W 070°42'0 0.0 280 / 81022.4 4.0
2017-Jan-01 21:54N 43°00' W 070°42'0 0.0 280 / 141020.6 4.9
2017-Jan-01 20:54N 43°00' W 070°42'0 0.0 280 / 141018.6 5.7
2017-Jan-01 19:54N 43°00' W 070°42'0 0.0 280 / 151017.0 6.1
2017-Jan-01 18:54N 43°00' W 070°42'0 0.0 280 / 171015.3 6.0
2017-Jan-01 17:54N 43°00' W 070°42'0 0.0 270 / 151014.4 5.9
2017-Jan-01 16:54N 43°00' W 070°42'0 0.0 270 / 151014.0 5.1
2017-Jan-01 15:55N 43°00' W 070°42'0 0.0 260 / 91013.7 4.5
2017-Jan-01 14:55N 43°00' W 070°42'0 0.0 260 / 81012.9 4.2
2017-Jan-01 13:55N 43°00' W 070°42'0 0.0 240 / 91011.2 3.4
2017-Jan-01 12:55N 43°00' W 070°42'0 0.0 230 / 61010.5 2.4
2017-Jan-01 11:55N 43°00' W 070°42'0 0.0 260 / 71010.0 2.3
2017-Jan-01 10:56N 43°00' W 070°42'0 0.0 270 / 51009.1 2.3
2017-Jan-01 09:56N 43°00' W 070°42'0 0.0 190 / 81008.0 2.3
2017-Jan-01 08:56N 43°00' W 070°42'0 0.0 200 / 71007.3 2.2
2017-Jan-01 06:56N 43°00' W 070°42'0 0.0 170 / 51007.8 2.3
2017-Jan-01 05:56N 43°00' W 070°42'0 0.0 190 / 91007.8 2.9
2017-Jan-01 04:56N 43°00' W 070°42'0 0.0 180 / 101007.5 3.1
2017-Jan-01 03:56N 43°00' W 070°42'0 0.0 170 / 61008.6 3.1
2017-Jan-01 02:56N 43°00' W 070°42'0 0.0 170 / 91009.4 3.8
2017-Jan-01 01:56N 43°00' W 070°42'0 0.0 180 / 61009.8 4.0
2017-Jan-01 00:56N 43°00' W 070°42'0 0.0 160 / 91010.9 3.5
2016-Dec-31 22:56N 43°00' W 070°42'0 0.0 180 / 111012.7 2.7
2016-Dec-31 21:57N 43°00' W 070°42'0 0.0 170 / 151013.1 2.0
2016-Dec-31 20:57N 43°00' W 070°42'0 0.0 150 / 101013.1 1.6
2016-Dec-31 18:57N 43°00' W 070°42'0 0.0 170 / 61014.1 0.6
2016-Dec-31 17:57N 43°00' W 070°42'0 0.0 180 / 71014.3 0.5
2016-Dec-31 16:57N 43°00' W 070°42'0 0.0 190 / 91015.7 0.1
2016-Dec-31 15:57N 43°00' W 070°42'0 0.0 250 / 71016.8 -1.3
2016-Dec-31 14:57N 43°00' W 070°42'0 0.0 200 / 31017.3 -3.0
2016-Dec-31 13:57N 43°00' W 070°42'0 0.0 210 / 61017.2 -4.1
2016-Dec-31 12:57N 43°00' W 070°42'0 0.0 240 / 41016.4 -4.8
2016-Dec-31 11:57N 43°00' W 070°42'0 0.0 240 / 41015.2 -5.0
2016-Dec-31 10:57N 43°00' W 070°42'0 0.0 260 / 61014.1 -4.5
2016-Dec-31 09:57N 43°00' W 070°42'0 0.0 260 / 71012.3 -4.1
2016-Dec-31 08:58N 43°00' W 070°42'0 0.0 280 / 141011.6 -3.3
2016-Dec-31 06:58N 43°00' W 070°42'0 0.0 280 / 101009.0 -2.6
2016-Dec-31 04:58N 43°00' W 070°42'0 0.0 270 / 161006.6 -1.9
2016-Dec-31 03:58N 43°00' W 070°42'0 0.0 270 / 151005.7 -1.4
2016-Dec-31 02:58N 43°00' W 070°42'0 0.0 270 / 161004.4 -0.6
2016-Dec-31 01:58N 43°00' W 070°42'0 0.0 290 / 151003.4 0.4
2016-Dec-31 00:58N 43°00' W 070°42'0 0.0 270 / 111001.8 0.3
2016-Dec-30 22:58N 43°00' W 070°42'0 0.0 230 / 9999.2 0.6
2016-Dec-30 21:58N 43°00' W 070°42'0 0.0 250 / 9997.5 1.3
2016-Dec-30 20:58N 43°00' W 070°42'0 0.0 270 / 12996.3 2.3
2016-Dec-30 19:58N 43°00' W 070°42'0 0.0 210 / 15995.1 2.8
2016-Dec-30 18:59N 43°00' W 070°42'0 0.0 210 / 10993.9 2.8
2016-Dec-30 17:59N 43°00' W 070°42'0 0.0 200 / 12993.0 2.9
2016-Dec-30 16:59N 43°00' W 070°42'0 0.0 210 / 9992.6 2.7
2016-Dec-30 15:59N 43°00' W 070°42'0 0.0 210 / 14992.4 2.1
2016-Dec-30 14:59N 43°00' W 070°42'0 0.0 200 / 14992.6 1.3
2016-Dec-30 13:59N 43°00' W 070°42'0 0.0 230 / 12991.7 0.9
2016-Dec-30 12:59N 43°00' W 070°42'0 0.0 240 / 9991.1 0.2
2016-Dec-30 11:59N 43°00' W 070°42'0 0.0 250 / 7990.5 0.4
2016-Dec-30 10:59N 43°00' W 070°42'0 0.0 220 / 7989.7 0.3
2016-Dec-30 09:59N 43°00' W 070°42'0 0.0 250 / 10988.6 0.6
2016-Dec-30 08:59N 43°00' W 070°42'0 0.0 260 / 12987.4 0.6
2016-Dec-30 07:59N 43°00' W 070°42'0 0.0 260 / 13986.6 0.8
2016-Dec-30 06:59N 43°00' W 070°42'0 0.0 260 / 12986.0 0.3
2016-Dec-30 06:00N 43°00' W 070°42'0 0.0 280 / 18985.4 0.2
2016-Dec-30 05:00N 43°00' W 070°42'0 0.0 270 / 12985.6 -0.0
2016-Dec-30 04:00N 43°00' W 070°42'0 0.0 290 / 18986.6 -0.6
2016-Dec-30 03:00N 43°00' W 070°42'0 0.0 310 / 16988.1 -0.6
2016-Dec-30 02:00N 43°00' W 070°42'0 0.0 310 / 15990.9 0.2
2016-Dec-30 01:00N 43°00' W 070°42'0 0.0 290 / 12994.0 4.0
2016-Dec-30 00:00N 43°00' W 070°42'0 0.0 070 / 10994.8 5.7
2016-Dec-29 23:00N 43°00' W 070°42'0 0.0 100 / 15996.5 6.3
2016-Dec-29 22:00N 43°00' W 070°42'0 0.0 110 / 13998.6 6.3
2016-Dec-29 21:00N 43°00' W 070°42'0 0.0 110 / 181000.7 5.6
2016-Dec-29 20:00N 43°00' W 070°42'   120 / 201002.6 4.4
Track history (hours):
 
Tides and Currents Weather Stations Pressure Air Temp Water Temp Dewpoint Dewpoint Depression Visibility Wind Speed Wind Dir Waves Ship Positions

Oceanographic research ship Hassler (USA)

Last reported at 2017-Jan-02 14:53 UTC. Time now 2017-Jan-24 07:04 UTC.
Position N 43°00' W 070°42'.
Warning: this ship's position is 21 days out of date.

Length 37 m; draft 3.8 m.

Type: . MMSI: 369970091.

Wind from 300 at 4 knots

Barometer 1032.6 mb
Air temperature -0.8 ° C

Date/timePositionNaut miles runAvg speedWind from/ knotsBaromVisibWave heightAir tempDewpointWater temp
2017-Jan-02 14:53N 43°00' W 070°42'0 0.0 300 / 41032.6 -0.8
2017-Jan-02 13:53N 43°00' W 070°42'0 0.0 320 / 21031.9 -2.1
2017-Jan-02 12:53N 43°00' W 070°42'0 0.0 340 / 41032.5 -2.6
2017-Jan-02 11:53N 43°00' W 070°42'0 0.0 260 / 51031.5 -2.4
2017-Jan-02 10:53N 43°00' W 070°42'0 0.0 280 / 71030.8 -2.1
2017-Jan-02 09:53N 43°00' W 070°42'0 0.0 270 / 61030.8 -1.7
2017-Jan-02 07:53N 43°00' W 070°42'0 0.0 270 / 41029.9 -1.0
2017-Jan-02 06:53N 43°00' W 070°42'0 0.0 280 / 21028.9 -0.8
2017-Jan-02 05:54N 43°00' W 070°42'0 0.0 220 / 21028.6 -0.8
2017-Jan-02 04:54N 43°00' W 070°42'0 0.0 200 / 21028.0 0.3
2017-Jan-02 03:54N 43°00' W 070°42'0 0.0 250 / 31027.8 0.1
2017-Jan-02 02:54N 43°00' W 070°42'0 0.0 270 / 41027.5 1.4
2017-Jan-02 01:54N 43°00' W 070°42'0 0.0 280 / 61026.6 2.1
2017-Jan-02 00:54N 43°00' W 070°42'0 0.0 290 / 11025.8 1.9
2017-Jan-01 22:54N 43°00' W 070°42'0 0.0 280 / 81022.4 4.0
2017-Jan-01 21:54N 43°00' W 070°42'0 0.0 280 / 141020.6 4.9
2017-Jan-01 20:54N 43°00' W 070°42'0 0.0 280 / 141018.6 5.7
2017-Jan-01 19:54N 43°00' W 070°42'0 0.0 280 / 151017.0 6.1
2017-Jan-01 18:54N 43°00' W 070°42'0 0.0 280 / 171015.3 6.0
2017-Jan-01 17:54N 43°00' W 070°42'0 0.0 270 / 151014.4 5.9
2017-Jan-01 16:54N 43°00' W 070°42'0 0.0 270 / 151014.0 5.1
2017-Jan-01 15:55N 43°00' W 070°42'0 0.0 260 / 91013.7 4.5
2017-Jan-01 14:55N 43°00' W 070°42'0 0.0 260 / 81012.9 4.2
2017-Jan-01 13:55N 43°00' W 070°42'0 0.0 240 / 91011.2 3.4
2017-Jan-01 12:55N 43°00' W 070°42'0 0.0 230 / 61010.5 2.4
2017-Jan-01 11:55N 43°00' W 070°42'0 0.0 260 / 71010.0 2.3
2017-Jan-01 10:56N 43°00' W 070°42'0 0.0 270 / 51009.1 2.3
2017-Jan-01 09:56N 43°00' W 070°42'0 0.0 190 / 81008.0 2.3
2017-Jan-01 08:56N 43°00' W 070°42'0 0.0 200 / 71007.3 2.2
2017-Jan-01 06:56N 43°00' W 070°42'0 0.0 170 / 51007.8 2.3
2017-Jan-01 05:56N 43°00' W 070°42'0 0.0 190 / 91007.8 2.9
2017-Jan-01 04:56N 43°00' W 070°42'0 0.0 180 / 101007.5 3.1
2017-Jan-01 03:56N 43°00' W 070°42'0 0.0 170 / 61008.6 3.1
2017-Jan-01 02:56N 43°00' W 070°42'0 0.0 170 / 91009.4 3.8
2017-Jan-01 01:56N 43°00' W 070°42'0 0.0 180 / 61009.8 4.0
2017-Jan-01 00:56N 43°00' W 070°42'0 0.0 160 / 91010.9 3.5
2016-Dec-31 22:56N 43°00' W 070°42'0 0.0 180 / 111012.7 2.7
2016-Dec-31 21:57N 43°00' W 070°42'0 0.0 170 / 151013.1 2.0
2016-Dec-31 20:57N 43°00' W 070°42'0 0.0 150 / 101013.1 1.6
2016-Dec-31 18:57N 43°00' W 070°42'0 0.0 170 / 61014.1 0.6
2016-Dec-31 17:57N 43°00' W 070°42'0 0.0 180 / 71014.3 0.5
2016-Dec-31 16:57N 43°00' W 070°42'0 0.0 190 / 91015.7 0.1
2016-Dec-31 15:57N 43°00' W 070°42'0 0.0 250 / 71016.8 -1.3
2016-Dec-31 14:57N 43°00' W 070°42'0 0.0 200 / 31017.3 -3.0
2016-Dec-31 13:57N 43°00' W 070°42'0 0.0 210 / 61017.2 -4.1
2016-Dec-31 12:57N 43°00' W 070°42'0 0.0 240 / 41016.4 -4.8
2016-Dec-31 11:57N 43°00' W 070°42'0 0.0 240 / 41015.2 -5.0
2016-Dec-31 10:57N 43°00' W 070°42'0 0.0 260 / 61014.1 -4.5
2016-Dec-31 09:57N 43°00' W 070°42'0 0.0 260 / 71012.3 -4.1
2016-Dec-31 08:58N 43°00' W 070°42'0 0.0 280 / 141011.6 -3.3
2016-Dec-31 06:58N 43°00' W 070°42'0 0.0 280 / 101009.0 -2.6
2016-Dec-31 04:58N 43°00' W 070°42'0 0.0 270 / 161006.6 -1.9
2016-Dec-31 03:58N 43°00' W 070°42'0 0.0 270 / 151005.7 -1.4
2016-Dec-31 02:58N 43°00' W 070°42'0 0.0 270 / 161004.4 -0.6
2016-Dec-31 01:58N 43°00' W 070°42'0 0.0 290 / 151003.4 0.4
2016-Dec-31 00:58N 43°00' W 070°42'0 0.0 270 / 111001.8 0.3
2016-Dec-30 22:58N 43°00' W 070°42'0 0.0 230 / 9999.2 0.6
2016-Dec-30 21:58N 43°00' W 070°42'0 0.0 250 / 9997.5 1.3
2016-Dec-30 20:58N 43°00' W 070°42'0 0.0 270 / 12996.3 2.3
2016-Dec-30 19:58N 43°00' W 070°42'0 0.0 210 / 15995.1 2.8
2016-Dec-30 18:59N 43°00' W 070°42'0 0.0 210 / 10993.9 2.8
2016-Dec-30 17:59N 43°00' W 070°42'0 0.0 200 / 12993.0 2.9
2016-Dec-30 16:59N 43°00' W 070°42'0 0.0 210 / 9992.6 2.7
2016-Dec-30 15:59N 43°00' W 070°42'0 0.0 210 / 14992.4 2.1
2016-Dec-30 14:59N 43°00' W 070°42'0 0.0 200 / 14992.6 1.3
2016-Dec-30 13:59N 43°00' W 070°42'0 0.0 230 / 12991.7 0.9
2016-Dec-30 12:59N 43°00' W 070°42'0 0.0 240 / 9991.1 0.2
2016-Dec-30 11:59N 43°00' W 070°42'0 0.0 250 / 7990.5 0.4
2016-Dec-30 10:59N 43°00' W 070°42'0 0.0 220 / 7989.7 0.3
2016-Dec-30 09:59N 43°00' W 070°42'0 0.0 250 / 10988.6 0.6
2016-Dec-30 08:59N 43°00' W 070°42'0 0.0 260 / 12987.4 0.6
2016-Dec-30 07:59N 43°00' W 070°42'0 0.0 260 / 13986.6 0.8
2016-Dec-30 06:59N 43°00' W 070°42'0 0.0 260 / 12986.0 0.3
2016-Dec-30 06:00N 43°00' W 070°42'0 0.0 280 / 18985.4 0.2
2016-Dec-30 05:00N 43°00' W 070°42'0 0.0 270 / 12985.6 -0.0
2016-Dec-30 04:00N 43°00' W 070°42'0 0.0 290 / 18986.6 -0.6
2016-Dec-30 03:00N 43°00' W 070°42'0 0.0 310 / 16988.1 -0.6
2016-Dec-30 02:00N 43°00' W 070°42'0 0.0 310 / 15990.9 0.2
2016-Dec-30 01:00N 43°00' W 070°42'0 0.0 290 / 12994.0 4.0
2016-Dec-30 00:00N 43°00' W 070°42'0 0.0 070 / 10994.8 5.7
2016-Dec-29 23:00N 43°00' W 070°42'0 0.0 100 / 15996.5 6.3
2016-Dec-29 22:00N 43°00' W 070°42'0 0.0 110 / 13998.6 6.3
2016-Dec-29 21:00N 43°00' W 070°42'0 0.0 110 / 181000.7 5.6
2016-Dec-29 20:00N 43°00' W 070°42'   120 / 201002.6 4.4

Dump ship's entire track history